ENKR/KKN METAR and TAF weather

Enter ICAO airport designator
Station Type Date Time Source
ENKR METAR 2018/07/21 03:50 UTC NOAA

ENKR 210350Z AUTO VRB02KT 9999 NCD 19/14 Q1013 RMK WIND 731FT 13007KT


Station Type Date Time Source
ENKR Decoded METAR 2018/07/21 03:50 UTC NOAA

Kirkenes Lufthavn, Norway (ENKR) 69-44N 029-54E 91M
Jul 20, 2018 - 11:50 PM EDT / 2018.07.21 0350 UTC
Wind: Variable at 2 MPH (2 KT):0
Visibility: greater than 7 mile(s):0
Temperature: 66 F (19 C)
Dew Point: 57 F (14 C)
Relative Humidity: 72%
Pressure (altimeter): 29.91 in. Hg (1013 hPa)
ob: ENKR 210350Z AUTO VRB02KT 9999 NCD 19/14 Q1013 RMK WIND 731FT 13007KT
cycle: 4

Station Type Date Time Source
ENKR TAF 2017/08/31 21:36 UTC NOAA

TAF TAF ENKR 312300Z 3121/0109 29005KT 9999 FEW020 SCT040


Example: see airport list